Time;durP1;ratioP1;P1;durP2;ratioP2;P2;SDS_P1;SDS_P2;PMS_P1;PMS_P2;Temp;Humidity;BMP_temperature;BMP_pressure;BME280_temperature;BME280_humidity;BME280_pressure;Samples;Min_cycle;Max_cycle;Signal;HPM_P1;HPM_P2
2021/10/16 00:00:07;;;;;;;9.82;8.88;;;6.60;99.90;;;;;;4954455;29;20488;-73
2021/10/16 00:02:32;;;;;;;14.63;11.95;;;6.50;99.90;;;;;;4954113;29;20041;-72
2021/10/16 00:04:57;;;;;;;12.23;11.00;;;6.40;99.90;;;;;;4936852;29;20031;-73
2021/10/16 00:07:23;;;;;;;12.63;10.52;;;6.30;99.90;;;;;;4936991;29;20023;-72
2021/10/16 00:09:48;;;;;;;7.75;6.95;;;6.20;99.90;;;;;;4954124;29;20027;-72
2021/10/16 00:12:14;;;;;;;7.82;7.13;;;6.00;99.90;;;;;;4954141;29;20094;-73
2021/10/16 00:14:41;;;;;;;8.45;7.53;;;6.00;99.90;;;;;;4953824;29;20074;-73
2021/10/16 00:17:06;;;;;;;7.38;6.72;;;6.10;99.90;;;;;;4941753;29;20107;-73
2021/10/16 00:19:32;;;;;;;7.78;7.05;;;6.10;99.90;;;;;;4954107;28;20099;-72
2021/10/16 00:21:57;;;;;;;8.20;7.38;;;6.00;99.90;;;;;;4953894;28;20433;-72
2021/10/16 00:24:23;;;;;;;10.82;7.72;;;6.10;99.90;;;;;;4936911;29;20533;-73
2021/10/16 00:26:48;;;;;;;28.55;10.10;;;6.20;99.90;;;;;;4954157;29;20023;-73
2021/10/16 00:29:14;;;;;;;106.28;13.00;;;6.10;99.90;;;;;;4923926;29;20039;-74
2021/10/16 00:31:39;;;;;;;41.05;7.53;;;6.10;99.90;;;;;;4930360;29;20027;-73
2021/10/16 00:34:05;;;;;;;84.20;9.52;;;6.00;99.90;;;;;;4934761;29;20502;-73
2021/10/16 00:36:30;;;;;;;41.47;9.32;;;6.00;99.90;;;;;;4953816;28;20034;-73
2021/10/16 00:38:56;;;;;;;59.88;11.00;;;6.00;99.90;;;;;;4953951;28;20047;-74
2021/10/16 00:41:21;;;;;;;14.65;7.18;;;6.00;99.90;;;;;;4953725;29;20393;-73
2021/10/16 00:43:47;;;;;;;8.38;7.03;;;6.00;99.90;;;;;;4936691;29;20031;-74
2021/10/16 00:46:12;;;;;;;9.32;7.40;;;5.90;99.90;;;;;;4953892;29;20035;-72
2021/10/16 00:48:38;;;;;;;10.93;8.32;;;5.90;99.90;;;;;;4936575;29;20478;-72
2021/10/16 00:51:03;;;;;;;58.15;13.35;;;5.70;99.90;;;;;;4955218;28;20055;-72
2021/10/16 00:53:29;;;;;;;164.85;16.60;;;5.40;99.90;;;;;;4960730;28;20036;-72
2021/10/16 00:55:55;;;;;;;47.03;9.60;;;5.20;99.90;;;;;;4953743;29;20035;-72
2021/10/16 00:58:23;;;;;;;58.47;10.68;;;5.20;99.90;;;;;;4953621;29;20031;-71
2021/10/16 01:00:48;;;;;;;23.73;12.52;;;5.30;99.90;;;;;;4953442;29;20034;-71
2021/10/16 01:03:14;;;;;;;11.95;10.35;;;5.10;99.90;;;;;;4953684;29;20460;-71
2021/10/16 01:05:39;;;;;;;9.93;8.93;;;5.20;99.90;;;;;;4953516;28;20035;-70
2021/10/16 01:08:10;;;;;;;10.43;8.60;;;5.30;99.90;;;;;;4953703;29;20023;-71
2021/10/16 01:10:35;;;;;;;18.25;13.40;;;5.40;99.90;;;;;;4953276;29;20035;-72
2021/10/16 01:13:01;;;;;;;11.15;9.18;;;5.20;99.90;;;;;;4953486;28;20023;-73
2021/10/16 01:15:27;;;;;;;10.52;7.75;;;5.20;99.90;;;;;;4936693;29;20030;-72
2021/10/16 01:17:54;;;;;;;7.97;7.22;;;5.10;99.90;;;;;;4939919;29;20462;-71
2021/10/16 01:20:22;;;;;;;8.68;7.55;;;5.20;99.90;;;;;;4951080;28;20032;-72
2021/10/16 01:22:49;;;;;;;9.43;7.75;;;5.20;99.90;;;;;;4937955;29;20106;-71
2021/10/16 01:25:21;;;;;;;8.65;7.53;;;5.20;99.90;;;;;;4938054;29;20149;-71
2021/10/16 01:27:47;;;;;;;9.57;8.57;;;5.30;99.90;;;;;;4937708;29;20114;-71
2021/10/16 01:30:16;;;;;;;9.27;8.38;;;5.20;99.90;;;;;;4920889;29;20390;-71
2021/10/16 01:32:42;;;;;;;12.85;9.55;;;5.30;99.90;;;;;;4937755;29;20087;-71
2021/10/16 01:35:10;;;;;;;13.35;10.18;;;5.30;99.90;;;;;;4937927;29;20028;-72
2021/10/16 01:37:41;;;;;;;8.77;7.88;;;5.10;99.90;;;;;;4935148;29;20516;-72
2021/10/16 01:40:09;;;;;;;10.65;8.85;;;5.20;99.90;;;;;;4957136;29;20031;-72
2021/10/16 01:42:36;;;;;;;9.43;8.40;;;5.10;99.90;;;;;;4956616;29;20062;-71
2021/10/16 01:45:02;;;;;;;8.13;7.30;;;5.20;99.90;;;;;;4966633;28;20027;-73
2021/10/16 01:47:28;;;;;;;9.88;7.50;;;5.00;99.90;;;;;;4959878;28;20042;-73
2021/10/16 01:49:56;;;;;;;12.45;8.77;;;5.00;99.90;;;;;;4947293;29;20494;-73
2021/10/16 01:52:22;;;;;;;9.05;8.15;;;5.00;99.90;;;;;;4950391;29;20115;-73
2021/10/16 01:54:48;;;;;;;11.55;9.60;;;4.80;99.90;;;;;;4947246;29;20501;-73
2021/10/16 01:57:13;;;;;;;12.82;9.15;;;4.70;99.90;;;;;;4923366;29;20047;-73
2021/10/16 01:59:39;;;;;;;9.90;8.32;;;4.70;99.90;;;;;;4930068;29;20075;-73
2021/10/16 02:02:05;;;;;;;9.73;7.97;;;4.60;99.90;;;;;;4936020;29;20071;-73
2021/10/16 02:04:30;;;;;;;8.63;7.82;;;4.60;99.90;;;;;;4947010;28;20031;-74
2021/10/16 02:06:56;;;;;;;8.32;7.05;;;4.60;99.90;;;;;;4923540;29;20028;-74
2021/10/16 02:09:21;;;;;;;39.20;10.30;;;4.60;99.90;;;;;;4946878;29;20023;-73
2021/10/16 02:11:47;;;;;;;133.95;15.52;;;4.70;99.90;;;;;;4953253;29;20046;-73
2021/10/16 02:14:13;;;;;;;209.18;17.40;;;4.40;99.90;;;;;;4930200;29;20122;-73
2021/10/16 02:16:38;;;;;;;258.10;18.52;;;4.60;99.90;;;;;;4956359;29;20027;-74
2021/10/16 02:19:05;;;;;;;244.07;20.80;;;4.60;99.90;;;;;;4947371;29;20107;-73
2021/10/16 02:21:30;;;;;;;319.75;20.70;;;4.70;99.90;;;;;;4949808;29;20031;-73
2021/10/16 02:23:56;;;;;;;332.77;27.02;;;4.50;99.90;;;;;;4929103;29;20038;-73
2021/10/16 02:26:22;;;;;;;167.32;15.10;;;4.50;99.90;;;;;;4943150;29;20644;-73
2021/10/16 02:28:47;;;;;;;140.32;15.95;;;4.30;99.90;;;;;;4936575;29;20042;-72
2021/10/16 02:31:13;;;;;;;203.32;16.98;;;4.40;99.90;;;;;;4955783;29;20031;-72
2021/10/16 02:33:38;;;;;;;151.18;14.20;;;4.60;99.90;;;;;;4955951;28;20027;-72
2021/10/16 02:36:04;;;;;;;171.23;13.32;;;4.50;99.90;;;;;;4955978;29;20094;-72
2021/10/16 02:38:29;;;;;;;145.52;14.13;;;4.50;99.90;;;;;;4955956;29;20106;-72
2021/10/16 02:40:55;;;;;;;130.27;15.60;;;4.60;99.90;;;;;;4942900;29;20471;-72
2021/10/16 02:43:21;;;;;;;132.23;13.70;;;4.40;99.90;;;;;;4951540;28;20498;-73
2021/10/16 02:45:47;;;;;;;77.43;12.20;;;4.40;99.90;;;;;;4959400;28;20038;-73
2021/10/16 02:48:12;;;;;;;146.23;13.10;;;4.50;99.90;;;;;;4956091;29;20042;-73
2021/10/16 02:50:38;;;;;;;161.18;15.43;;;4.40;99.90;;;;;;4956189;28;20441;-73
2021/10/16 02:53:03;;;;;;;120.20;14.05;;;4.30;99.90;;;;;;4965416;28;20065;-73
2021/10/16 02:55:29;;;;;;;193.77;20.00;;;4.10;99.90;;;;;;4955643;29;20019;-72
2021/10/16 02:57:54;;;;;;;210.35;17.02;;;4.20;99.90;;;;;;4955514;29;20589;-72
2021/10/16 03:00:20;;;;;;;72.97;9.63;;;4.20;99.90;;;;;;4955833;29;20027;-72
2021/10/16 03:02:45;;;;;;;71.43;9.88;;;4.10;99.90;;;;;;4960671;29;20683;-72
2021/10/16 03:05:11;;;;;;;160.25;12.73;;;4.20;99.90;;;;;;4938302;29;20042;-71
2021/10/16 03:07:36;;;;;;;143.45;14.50;;;4.20;99.90;;;;;;4938107;29;20706;-72
2021/10/16 03:10:03;;;;;;;110.88;10.85;;;4.10;99.90;;;;;;4955315;29;20050;-71
2021/10/16 03:12:29;;;;;;;72.95;9.00;;;4.10;99.90;;;;;;4955095;28;20505;-71
2021/10/16 03:14:54;;;;;;;105.18;14.10;;;4.10;99.90;;;;;;4955262;28;20023;-71
2021/10/16 03:17:20;;;;;;;76.95;10.95;;;4.10;99.90;;;;;;4955216;29;20500;-71
2021/10/16 03:19:45;;;;;;;46.53;10.30;;;4.10;99.90;;;;;;4937873;29;20019;-71
2021/10/16 03:22:11;;;;;;;145.05;13.65;;;4.00;99.90;;;;;;4954892;29;20030;-71
2021/10/16 03:24:38;;;;;;;120.20;11.20;;;4.00;99.90;;;;;;4954911;29;20029;-71
2021/10/16 03:27:05;;;;;;;149.98;16.88;;;4.00;99.90;;;;;;4954992;29;20035;-73
2021/10/16 03:29:31;;;;;;;49.25;10.75;;;3.80;99.90;;;;;;4954900;28;20027;-72
2021/10/16 03:31:57;;;;;;;99.28;11.35;;;3.80;99.90;;;;;;4954689;29;20478;-73
2021/10/16 03:34:22;;;;;;;177.02;13.23;;;3.80;99.90;;;;;;4955037;29;20059;-73
2021/10/16 03:36:48;;;;;;;74.53;11.20;;;3.80;99.90;;;;;;4954737;28;20074;-72
2021/10/16 03:39:14;;;;;;;83.97;11.00;;;3.80;99.90;;;;;;4954364;28;20114;-72
2021/10/16 03:41:40;;;;;;;73.45;10.23;;;4.00;99.90;;;;;;4936948;29;20027;-72
2021/10/16 03:44:05;;;;;;;96.75;12.07;;;4.00;99.90;;;;;;4949314;28;20466;-72
2021/10/16 03:46:31;;;;;;;117.75;14.77;;;4.10;99.90;;;;;;4955199;29;20027;-72
2021/10/16 03:48:57;;;;;;;110.20;12.15;;;4.00;99.90;;;;;;4954651;28;20490;-72
2021/10/16 03:51:22;;;;;;;182.93;16.48;;;3.90;99.90;;;;;;4954502;28;20151;-72
2021/10/16 03:53:48;;;;;;;384.95;27.67;;;3.90;99.90;;;;;;4939389;29;20150;-72
2021/10/16 03:56:13;;;;;;;265.63;21.45;;;3.80;99.90;;;;;;4943943;29;20079;-73
2021/10/16 03:58:40;;;;;;;274.70;16.10;;;3.80;99.90;;;;;;4954470;29;20047;-72
2021/10/16 04:01:05;;;;;;;135.07;10.35;;;3.70;99.90;;;;;;4954287;29;20030;-72
2021/10/16 04:03:31;;;;;;;108.47;10.00;;;3.80;99.90;;;;;;4954377;29;20031;-72
2021/10/16 04:05:56;;;;;;;105.63;9.70;;;4.00;99.90;;;;;;4945926;29;20103;-72
2021/10/16 04:08:22;;;;;;;282.15;17.08;;;4.10;99.90;;;;;;4947957;28;20390;-71
2021/10/16 04:10:48;;;;;;;290.83;15.55;;;4.00;99.90;;;;;;4917825;29;20040;-72
2021/10/16 04:13:14;;;;;;;314.70;18.02;;;3.70;99.90;;;;;;4932908;29;20035;-72
2021/10/16 04:15:40;;;;;;;297.60;19.92;;;3.80;99.90;;;;;;4954310;29;20063;-72
2021/10/16 04:18:06;;;;;;;185.68;16.52;;;3.60;99.90;;;;;;4954104;29;20051;-72
2021/10/16 04:20:32;;;;;;;450.52;24.85;;;3.60;99.90;;;;;;4954016;29;20028;-72
2021/10/16 04:22:58;;;;;;;459.33;22.95;;;3.50;99.90;;;;;;4939606;29;20036;-72
2021/10/16 04:25:24;;;;;;;237.43;18.40;;;3.70;99.90;;;;;;4925834;29;20409;-71
2021/10/16 04:27:49;;;;;;;71.13;8.75;;;3.60;99.90;;;;;;4922023;29;20040;-71
2021/10/16 04:30:15;;;;;;;201.70;13.63;;;3.80;99.90;;;;;;4942923;29;20027;-71
2021/10/16 04:32:41;;;;;;;172.27;11.48;;;4.00;99.90;;;;;;4936525;29;20027;-71
2021/10/16 04:35:08;;;;;;;307.17;19.48;;;3.80;99.90;;;;;;4945944;29;20023;-71
2021/10/16 04:37:35;;;;;;;234.00;13.80;;;3.60;99.90;;;;;;4947115;29;20031;-71
2021/10/16 04:40:09;;;;;;;100.53;14.23;;;3.50;99.90;;;;;;4926167;29;20033;-73
2021/10/16 04:42:35;;;;;;;81.10;9.55;;;3.60;99.90;;;;;;4946559;29;20031;-71
2021/10/16 04:45:01;;;;;;;67.07;8.15;;;3.70;99.90;;;;;;4930844;29;20023;-71
2021/10/16 04:47:27;;;;;;;164.05;17.58;;;3.80;99.90;;;;;;4948929;29;20020;-72
2021/10/16 04:49:53;;;;;;;46.75;12.02;;;3.80;99.90;;;;;;4953768;29;20019;-70
2021/10/16 04:52:18;;;;;;;93.80;12.93;;;3.90;99.90;;;;;;4953400;28;20031;-71
2021/10/16 04:54:44;;;;;;;73.78;17.60;;;4.00;99.90;;;;;;4953718;29;20102;-71
2021/10/16 04:57:09;;;;;;;159.18;17.88;;;3.90;99.90;;;;;;4940675;29;20031;-72
2021/10/16 04:59:35;;;;;;;174.70;17.88;;;3.90;99.90;;;;;;4953813;29;20023;-73
2021/10/16 05:02:02;;;;;;;216.95;16.08;;;3.80;99.90;;;;;;4921430;29;20509;-72
2021/10/16 05:04:27;;;;;;;291.88;16.42;;;3.60;99.90;;;;;;4943216;29;20438;-73
2021/10/16 05:06:54;;;;;;;126.25;11.25;;;3.70;99.90;;;;;;4940628;29;20040;-72
2021/10/16 05:09:20;;;;;;;212.35;14.88;;;3.70;99.90;;;;;;4953574;28;20038;-72
2021/10/16 05:11:45;;;;;;;107.40;9.73;;;3.80;99.90;;;;;;4953283;28;20402;-72
2021/10/16 05:14:11;;;;;;;169.90;11.02;;;3.80;99.90;;;;;;4936479;29;20038;-72
2021/10/16 05:16:37;;;;;;;187.50;14.05;;;3.90;99.90;;;;;;4953578;29;20368;-72
2021/10/16 05:19:03;;;;;;;146.30;11.77;;;3.90;99.90;;;;;;4927887;29;20471;-72
2021/10/16 05:21:28;;;;;;;187.98;14.52;;;3.70;99.90;;;;;;4930128;29;20542;-72
2021/10/16 05:23:54;;;;;;;118.72;11.88;;;3.90;99.90;;;;;;4925982;28;20023;-72
2021/10/16 05:26:19;;;;;;;72.88;9.05;;;3.70;99.90;;;;;;4940635;29;20031;-73
2021/10/16 05:28:45;;;;;;;112.13;8.95;;;3.60;99.90;;;;;;4953278;28;20118;-72
2021/10/16 05:31:10;;;;;;;103.30;10.52;;;3.60;99.90;;;;;;4953165;29;20397;-71
2021/10/16 05:33:36;;;;;;;79.00;8.88;;;3.70;99.90;;;;;;4953409;29;20038;-72
2021/10/16 05:36:01;;;;;;;116.78;10.98;;;3.60;99.90;;;;;;4953389;29;20095;-73
2021/10/16 05:38:27;;;;;;;73.20;10.00;;;3.60;99.90;;;;;;4955039;29;20397;-72
2021/10/16 05:40:53;;;;;;;139.35;11.80;;;3.50;99.90;;;;;;4936747;28;20764;-72
2021/10/16 05:43:18;;;;;;;55.25;9.30;;;3.40;99.90;;;;;;4954736;29;20404;-72
2021/10/16 05:45:44;;;;;;;93.57;8.57;;;3.50;99.90;;;;;;4966865;28;20401;-72
2021/10/16 05:48:09;;;;;;;150.43;12.02;;;3.60;99.90;;;;;;4953278;29;20099;-72
2021/10/16 05:50:35;;;;;;;147.82;12.00;;;3.50;99.90;;;;;;4952864;29;20054;-72
2021/10/16 05:53:00;;;;;;;64.90;10.38;;;3.40;99.90;;;;;;4944618;29;20020;-72
2021/10/16 05:55:26;;;;;;;60.63;7.82;;;3.40;99.90;;;;;;4948900;29;20107;-72
2021/10/16 05:57:51;;;;;;;155.70;13.23;;;3.60;99.90;;;;;;4944822;29;20019;-72
2021/10/16 06:00:17;;;;;;;69.95;10.88;;;3.60;99.90;;;;;;4916970;29;20035;-72
2021/10/16 06:02:42;;;;;;;128.63;11.30;;;3.70;99.90;;;;;;4934062;29;20031;-71
2021/10/16 06:05:08;;;;;;;123.82;10.30;;;3.50;99.90;;;;;;4937257;29;20546;-72
2021/10/16 06:07:34;;;;;;;176.35;15.38;;;3.50;99.90;;;;;;4937179;29;20044;-72
2021/10/16 06:09:59;;;;;;;229.55;15.38;;;3.60;99.90;;;;;;4951798;29;20237;-72
2021/10/16 06:12:25;;;;;;;194.73;13.68;;;3.50;99.90;;;;;;4956789;29;20094;-73
2021/10/16 06:14:50;;;;;;;135.18;10.32;;;3.50;99.90;;;;;;4956414;28;20049;-72
2021/10/16 06:17:16;;;;;;;86.40;8.15;;;3.50;99.90;;;;;;4956225;29;20023;-72
2021/10/16 06:19:44;;;;;;;149.15;13.52;;;3.40;99.90;;;;;;4956359;28;20457;-72
2021/10/16 06:22:10;;;;;;;187.57;11.55;;;3.40;99.90;;;;;;4947909;29;20027;-72
2021/10/16 06:24:35;;;;;;;86.90;11.35;;;3.50;99.90;;;;;;4932819;29;20042;-73
2021/10/16 06:27:01;;;;;;;89.53;9.50;;;3.60;99.90;;;;;;4945153;29;20027;-72
2021/10/16 06:29:26;;;;;;;66.00;7.75;;;3.50;99.90;;;;;;4956081;29;20071;-71
2021/10/16 06:31:52;;;;;;;62.05;7.43;;;3.60;99.90;;;;;;4956127;29;20038;-72
2021/10/16 06:34:17;;;;;;;42.10;6.20;;;3.70;99.90;;;;;;4941692;29;20541;-72
2021/10/16 06:36:43;;;;;;;68.45;7.50;;;3.60;99.90;;;;;;4919836;29;20442;-72
2021/10/16 06:39:08;;;;;;;58.33;7.40;;;3.60;99.90;;;;;;4936674;29;20039;-72
2021/10/16 06:41:33;;;;;;;54.72;8.10;;;3.70;99.90;;;;;;4936608;29;20035;-72
2021/10/16 06:43:59;;;;;;;45.72;8.45;;;3.60;99.90;;;;;;4945028;28;20501;-72
2021/10/16 06:46:24;;;;;;;33.35;5.72;;;3.70;99.90;;;;;;4967267;28;20166;-72
2021/10/16 06:48:50;;;;;;;61.92;8.65;;;3.90;99.90;;;;;;4955794;29;20058;-72
2021/10/16 06:51:16;;;;;;;58.13;11.75;;;3.60;99.90;;;;;;4955658;29;20497;-72
2021/10/16 06:53:41;;;;;;;10.02;4.43;;;3.80;99.90;;;;;;4938528;29;20024;-72
2021/10/16 06:56:06;;;;;;;30.05;8.77;;;3.90;99.90;;;;;;4955777;29;20035;-72
2021/10/16 06:58:32;;;;;;;22.60;7.93;;;4.00;99.90;;;;;;4955575;29;20455;-72
2021/10/16 07:00:58;;;;;;;12.38;5.85;;;3.60;99.90;;;;;;4955482;29;20438;-72
2021/10/16 07:03:23;;;;;;;42.78;9.32;;;3.60;99.90;;;;;;4955550;28;20383;-72
2021/10/16 07:05:49;;;;;;;20.88;9.27;;;3.50;99.90;;;;;;4955460;29;20086;-72
2021/10/16 07:08:14;;;;;;;50.08;12.35;;;3.60;99.90;;;;;;4938223;29;20027;-72
2021/10/16 07:10:41;;;;;;;146.82;15.98;;;3.70;99.90;;;;;;4954253;28;20016;-72
2021/10/16 07:13:08;;;;;;;147.00;14.98;;;3.60;99.90;;;;;;4942002;29;20103;-72
2021/10/16 07:15:34;;;;;;;197.95;14.30;;;3.70;99.90;;;;;;4954011;28;20030;-72
2021/10/16 07:18:00;;;;;;;491.50;21.92;;;3.60;99.90;;;;;;4938032;29;20020;-72
2021/10/16 07:20:25;;;;;;;207.90;12.10;;;3.70;99.90;;;;;;4955000;28;20031;-72
2021/10/16 07:22:51;;;;;;;440.35;21.25;;;3.70;99.90;;;;;;4954891;28;20035;-73
2021/10/16 07:25:16;;;;;;;306.40;17.60;;;3.90;99.90;;;;;;4954909;29;20027;-72
2021/10/16 07:27:42;;;;;;;332.67;17.25;;;3.80;99.90;;;;;;4954773;29;20042;-72
2021/10/16 07:30:08;;;;;;;254.27;19.75;;;3.90;99.90;;;;;;4947428;29;20556;-72
2021/10/16 07:32:34;;;;;;;176.60;10.02;;;4.10;99.90;;;;;;4935538;29;20035;-72
2021/10/16 07:35:00;;;;;;;218.05;11.57;;;4.30;99.90;;;;;;4935632;29;20103;-72
2021/10/16 07:37:25;;;;;;;90.97;9.07;;;4.20;99.90;;;;;;4918775;29;20164;-72
2021/10/16 07:39:51;;;;;;;204.48;14.43;;;4.40;99.90;;;;;;4935825;29;20175;-72
2021/10/16 07:42:16;;;;;;;153.65;12.18;;;4.50;99.90;;;;;;4931951;29;20034;-73
2021/10/16 07:44:42;;;;;;;117.47;8.20;;;4.50;99.90;;;;;;4937285;29;20430;-72
2021/10/16 07:47:07;;;;;;;181.63;12.63;;;4.80;99.90;;;;;;4954710;29;20470;-72
2021/10/16 07:49:33;;;;;;;188.52;12.68;;;4.60;99.90;;;;;;4937300;29;20057;-72
2021/10/16 07:51:58;;;;;;;129.68;10.02;;;4.50;99.90;;;;;;4962596;28;20034;-72
2021/10/16 07:54:24;;;;;;;113.97;9.65;;;4.40;99.90;;;;;;4954710;29;20031;-72
2021/10/16 07:56:50;;;;;;;119.38;10.35;;;4.60;99.90;;;;;;4954486;29;20448;-72
2021/10/16 07:59:15;;;;;;;173.55;11.52;;;4.40;99.90;;;;;;4954288;29;20086;-72
2021/10/16 08:01:41;;;;;;;265.15;15.38;;;4.50;99.90;;;;;;4953934;29;20034;-72
2021/10/16 08:04:07;;;;;;;166.38;11.38;;;4.60;99.90;;;;;;4937188;29;20475;-73
2021/10/16 08:06:33;;;;;;;52.03;7.43;;;4.70;99.90;;;;;;4941462;29;20059;-74
2021/10/16 08:09:00;;;;;;;123.85;9.60;;;4.70;99.90;;;;;;4954265;29;20054;-73
2021/10/16 08:11:26;;;;;;;105.35;12.05;;;4.80;99.90;;;;;;4940913;29;20036;-73
2021/10/16 08:13:52;;;;;;;113.80;10.85;;;4.90;99.90;;;;;;4941700;29;20429;-73
2021/10/16 08:16:17;;;;;;;141.52;10.57;;;5.20;99.90;;;;;;4953970;28;20035;-72
2021/10/16 08:18:43;;;;;;;111.90;12.63;;;5.20;99.90;;;;;;4936689;29;20027;-73
2021/10/16 08:21:08;;;;;;;69.47;8.95;;;5.20;99.90;;;;;;4953786;28;20035;-73
2021/10/16 08:23:34;;;;;;;130.43;11.98;;;5.50;99.90;;;;;;4954028;29;20031;-73
2021/10/16 08:25:59;;;;;;;187.10;14.93;;;5.50;99.90;;;;;;4936474;29;20414;-73
2021/10/16 08:28:28;;;;;;;79.90;10.48;;;5.60;99.90;;;;;;4936286;29;20125;-72
2021/10/16 08:30:54;;;;;;;34.65;9.07;;;5.50;99.90;;;;;;4936381;29;20053;-72
2021/10/16 08:33:21;;;;;;;98.80;10.13;;;5.70;99.90;;;;;;4954471;29;20505;-73
2021/10/16 08:35:47;;;;;;;61.92;11.07;;;5.60;99.90;;;;;;4957216;29;20491;-72
2021/10/16 08:38:14;;;;;;;27.58;10.85;;;5.70;99.90;;;;;;4954710;28;20027;-71
2021/10/16 08:40:39;;;;;;;98.75;13.30;;;5.70;99.90;;;;;;4940977;29;20110;-73
2021/10/16 08:43:06;;;;;;;19.95;9.32;;;5.90;99.90;;;;;;4953559;28;20083;-73
2021/10/16 08:45:33;;;;;;;516.13;34.90;;;6.10;99.90;;;;;;4961160;28;20370;-73
2021/10/16 08:48:02;;;;;;;131.15;13.75;;;6.20;99.90;;;;;;4953652;29;20031;-73
2021/10/16 08:50:29;;;;;;;77.00;12.70;;;6.10;99.90;;;;;;4939305;29;20032;-73
2021/10/16 08:52:55;;;;;;;99.55;12.18;;;6.30;99.90;;;;;;4942444;29;20023;-73
2021/10/16 08:55:21;;;;;;;69.50;12.52;;;6.10;99.90;;;;;;4953679;28;20111;-72
2021/10/16 08:57:47;;;;;;;217.32;23.77;;;6.40;99.90;;;;;;4953674;29;20054;-72
2021/10/16 09:00:53;;;;;;;240.73;20.75;;;6.40;99.90;;;;;;4953501;29;20051;-72
2021/10/16 09:03:36;;;;;;;197.05;21.35;;;6.20;99.90;;;;;;4953558;29;20085;-72
2021/10/16 09:06:25;;;;;;;134.52;18.50;;;6.30;99.90;;;;;;4945205;29;20024;-72
2021/10/16 09:08:55;;;;;;;542.65;41.92;;;6.40;99.90;;;;;;4935793;29;20439;-72
2021/10/16 09:11:35;;;;;;;93.15;16.85;;;6.40;99.90;;;;;;4934122;29;20120;-72
2021/10/16 09:14:05;;;;;;;181.32;19.30;;;6.50;99.90;;;;;;4942027;29;20070;-72
2021/10/16 09:16:42;;;;;;;508.88;37.10;;;6.40;99.90;;;;;;4953753;29;20360;-72
2021/10/16 09:19:23;;;;;;;157.70;18.23;;;6.50;99.90;;;;;;4953445;29;20015;-72
2021/10/16 09:22:09;;;;;;;24.10;12.43;;;6.30;99.90;;;;;;4953132;29;20024;-72
2021/10/16 09:24:46;;;;;;;804.13;53.30;;;6.70;99.90;;;;;;4953538;29;20062;-72
2021/10/16 09:27:14;;;;;;;119.47;23.50;;;6.60;99.90;;;;;;4926671;29;20031;-72
2021/10/16 09:29:45;;;;;;;72.70;20.15;;;6.70;99.90;;;;;;4950408;29;20031;-72
2021/10/16 09:32:14;;;;;;;129.40;18.60;;;7.00;99.90;;;;;;4936014;29;20054;-72
2021/10/16 09:34:42;;;;;;;56.40;20.95;;;7.00;99.90;;;;;;4953287;29;20433;-72
2021/10/16 09:37:16;;;;;;;43.08;16.75;;;7.20;99.90;;;;;;4936056;28;20557;-72
2021/10/16 09:39:45;;;;;;;39.75;17.27;;;7.00;99.90;;;;;;4920897;29;20040;-72
2021/10/16 09:42:11;;;;;;;32.63;16.33;;;6.80;99.90;;;;;;4949926;29;20034;-72
2021/10/16 09:44:38;;;;;;;54.35;16.55;;;7.00;99.90;;;;;;4955476;28;20019;-73
2021/10/16 09:47:06;;;;;;;44.20;18.58;;;7.20;99.90;;;;;;4956667;29;20031;-72
2021/10/16 09:49:40;;;;;;;74.25;22.17;;;7.10;99.90;;;;;;4956884;28;20050;-72
2021/10/16 09:52:10;;;;;;;31.30;18.05;;;6.90;99.90;;;;;;4964933;28;20027;-72
2021/10/16 09:54:36;;;;;;;29.20;15.98;;;7.20;99.90;;;;;;4939740;29;20035;-72
2021/10/16 09:57:09;;;;;;;54.10;15.40;;;7.40;99.90;;;;;;4957024;28;20074;-73
2021/10/16 09:59:36;;;;;;;34.85;16.80;;;7.40;99.90;;;;;;4947363;29;20024;-72
2021/10/16 10:02:04;;;;;;;15.02;13.18;;;7.50;99.90;;;;;;4953741;29;20027;-73
2021/10/16 10:04:42;;;;;;;30.67;15.73;;;7.40;99.90;;;;;;4957699;29;20023;-72
2021/10/16 10:07:09;;;;;;;22.55;16.15;;;7.50;99.90;;;;;;4938248;29;20023;-72
2021/10/16 10:09:38;;;;;;;19.23;14.70;;;7.50;99.90;;;;;;4949407;29;20023;-72
2021/10/16 10:12:04;;;;;;;24.23;15.32;;;7.50;99.90;;;;;;4956227;29;20028;-72
2021/10/16 10:14:30;;;;;;;17.00;14.02;;;7.60;99.90;;;;;;4944006;29;20434;-73
2021/10/16 10:17:01;;;;;;;18.42;14.70;;;7.80;99.90;;;;;;4956115;29;20027;-73
2021/10/16 10:19:29;;;;;;;21.45;15.45;;;7.80;99.90;;;;;;4939184;29;20027;-73
2021/10/16 10:21:56;;;;;;;13.45;11.82;;;7.60;99.90;;;;;;4949391;28;20035;-72
2021/10/16 10:24:36;;;;;;;17.60;13.52;;;7.70;99.90;;;;;;4950234;29;20023;-72
2021/10/16 10:27:10;;;;;;;17.40;13.55;;;7.90;99.90;;;;;;4956312;28;20031;-73
2021/10/16 10:29:37;;;;;;;16.33;13.77;;;8.00;99.90;;;;;;4956071;29;20486;-73
2021/10/16 10:32:05;;;;;;;18.73;13.95;;;8.00;99.90;;;;;;4956061;29;20034;-72
2021/10/16 10:34:38;;;;;;;20.17;15.48;;;8.00;99.90;;;;;;4939010;28;20031;-72
2021/10/16 10:37:13;;;;;;;14.55;13.05;;;8.00;99.90;;;;;;4938890;29;20033;-73
2021/10/16 10:39:40;;;;;;;17.15;14.38;;;8.00;99.90;;;;;;4949946;28;20463;-73
2021/10/16 10:42:09;;;;;;;19.10;14.30;;;8.10;99.90;;;;;;4919869;29;20032;-73
2021/10/16 10:44:43;;;;;;;21.77;15.93;;;8.00;99.90;;;;;;4948031;28;20109;-73
2021/10/16 10:47:28;;;;;;;17.55;13.60;;;8.30;99.90;;;;;;4956280;28;20027;-73
2021/10/16 10:49:56;;;;;;;18.30;14.50;;;8.30;99.90;;;;;;4938596;29;20086;-72
2021/10/16 10:52:23;;;;;;;18.38;15.77;;;8.20;99.90;;;;;;4947273;28;20027;-73
2021/10/16 10:55:12;;;;;;;19.70;16.35;;;8.30;99.90;;;;;;4956014;29;20094;-73
2021/10/16 10:57:45;;;;;;;20.17;15.48;;;8.00;99.90;;;;;;4943419;29;20019;-73
2021/10/16 11:00:12;;;;;;;20.08;15.32;;;8.10;99.90;;;;;;4938403;29;20110;-73
2021/10/16 11:02:38;;;;;;;17.35;15.00;;;8.20;99.90;;;;;;4955597;29;20019;-73
2021/10/16 11:08:14;;;;;;;17.10;15.30;;;8.00;99.90;;;;;;4937707;28;20027;-74
2021/10/16 11:10:41;;;;;;;17.95;15.23;;;8.20;99.90;;;;;;4942803;29;20493;-74
2021/10/16 11:13:15;;;;;;;19.60;15.50;;;8.30;99.90;;;;;;4955189;28;20038;-73
2021/10/16 11:15:42;;;;;;;19.10;14.90;;;8.30;99.90;;;;;;4955335;29;20513;-72
2021/10/16 11:18:15;;;;;;;19.27;16.10;;;8.40;99.90;;;;;;4955075;29;20102;-71
2021/10/16 11:20:42;;;;;;;17.17;14.77;;;8.30;99.90;;;;;;4954938;29;20027;-71
2021/10/16 11:23:18;;;;;;;17.15;14.75;;;8.50;99.90;;;;;;4954922;28;20034;-74
2021/10/16 11:25:55;;;;;;;17.05;15.25;;;8.50;99.90;;;;;;4938055;29;20037;-74
2021/10/16 11:28:21;;;;;;;17.33;15.23;;;8.40;99.90;;;;;;4954664;28;20166;-73
2021/10/16 11:30:48;;;;;;;16.42;14.63;;;8.30;99.90;;;;;;4954677;29;20114;-73
2021/10/16 11:33:16;;;;;;;17.13;13.40;;;8.30;99.90;;;;;;4955117;28;20426;-74
2021/10/16 11:35:47;;;;;;;20.08;15.07;;;8.60;99.90;;;;;;4954939;29;20066;-74
2021/10/16 11:38:15;;;;;;;21.27;15.10;;;8.50;99.90;;;;;;4936067;29;20020;-74
2021/10/16 11:40:41;;;;;;;16.52;13.60;;;8.60;99.90;;;;;;4936152;29;20028;-74
2021/10/16 11:43:19;;;;;;;20.02;14.88;;;8.80;99.90;;;;;;4944239;29;20133;-73
2021/10/16 11:45:46;;;;;;;18.95;15.23;;;8.80;99.90;;;;;;4969066;28;20035;-74
2021/10/16 11:48:14;;;;;;;15.45;13.27;;;9.00;99.90;;;;;;4954704;29;20125;-73
2021/10/16 11:50:45;;;;;;;15.13;12.52;;;9.00;99.90;;;;;;4936692;29;20037;-74
2021/10/16 11:53:19;;;;;;;16.00;13.30;;;9.40;99.90;;;;;;4954046;28;20078;-73
2021/10/16 11:55:57;;;;;;;16.70;12.30;;;9.30;99.90;;;;;;4937900;29;20452;-75
2021/10/16 11:58:29;;;;;;;12.02;10.75;;;9.50;99.90;;;;;;4935318;29;20024;-73
2021/10/16 12:00:55;;;;;;;12.45;10.80;;;10.30;99.90;;;;;;4941147;29;20035;-73
2021/10/16 12:03:31;;;;;;;13.32;11.88;;;10.50;99.90;;;;;;4954266;29;20045;-74
2021/10/16 12:05:57;;;;;;;14.25;12.23;;;10.40;99.90;;;;;;4954346;28;20026;-74
2021/10/16 12:08:26;;;;;;;12.65;10.57;;;10.10;99.90;;;;;;4954256;29;20031;-73
2021/10/16 12:10:55;;;;;;;11.98;10.63;;;10.10;99.90;;;;;;4954263;29;20031;-73
2021/10/16 12:13:31;;;;;;;12.18;10.88;;;10.20;99.90;;;;;;4954106;29;20023;-73
2021/10/16 12:15:57;;;;;;;;;;;10.10;99.90;;;;;;4954544;29;20083;-73
2021/10/16 12:18:30;;;;;;;15.50;10.98;;;10.00;99.90;;;;;;4936477;29;19906;-73
2021/10/16 12:21:04;;;;;;;12.38;10.60;;;10.10;99.90;;;;;;4953910;29;20697;-73
2021/10/16 12:23:45;;;;;;;14.60;10.82;;;10.00;99.90;;;;;;4918723;29;20031;-74
2021/10/16 12:26:19;;;;;;;10.85;9.43;;;9.60;99.90;;;;;;4948456;29;20031;-73
2021/10/16 12:28:45;;;;;;;13.52;9.45;;;9.60;99.90;;;;;;4953625;29;20467;-73
2021/10/16 12:31:11;;;;;;;13.38;9.25;;;9.70;99.90;;;;;;4953511;29;20059;-73
2021/10/16 12:33:55;;;;;;;11.07;9.02;;;9.80;99.90;;;;;;4953921;28;20105;-73
2021/10/16 12:36:31;;;;;;;14.02;8.95;;;9.90;99.90;;;;;;4953834;29;20027;-73
2021/10/16 12:38:58;;;;;;;;;;;9.90;99.90;;;;;;4937091;29;20023;-73